OESK

Details ICAO OESK (AJF)
Name AL JOUF
Region Saudi Arabia
Timezone Asia/Riyadh (UTC+3.0)
Plans Departing 7
Arriving 10
Stats Elevation 2,261 ft / 689 m (AMSL)
Location 29.785132° 40.100004°
Runways 1
Magnetic Variation 4.314° E
Sunrise 2017-12-18 04:10:32 UTC / 2017-12-18 07:10:32 Local
Sunset 2017-12-18 14:24:29 UTC / 2017-12-18 17:24:29 Local
Advertisement - Login to hide

Runways

ID Width Length Bearing (true) Bearing (mag) Surface Threshold Offset Overrun Length
10 147 ft / 45 m 11,996 ft / 3,656 m 99.80° 95.49° Asphalt 0 ft / 0 m 975 ft / 297 m
28 147 ft / 45 m 11,996 ft / 3,656 m 279.81° 275.50° Asphalt 0 ft / 0 m 975 ft / 297 m

Approach Navaids

Runway Type Ident Frequency Range Bearing (true) Bearing (mag) Slope Elevation
28 Localiser IAJF 109.90 MHz 18 nm / 33 km 279.77° 275.45° - 2,229 ft / 679 m (AMSL)
28 Glidescope IAJF 109.90 MHz 10 nm / 19 km 279.80° 275.49° 3.00° 2,229 ft / 679 m (AMSL)
28 DME IAJF 109.90 MHz 18 nm / 33 km - - - 2,229 ft / 679 m (AMSL)

Map

Weather


0- 5 10 15 20 25 30 35+ Temperature / ° C

Clouds and Precipitation
Forecast for 2017-12-18 12:00 UTC. Updated 9 minutes ago

Ground ~20,000 ft ~40,000 ft Winds

METAR

OESK 181100Z 26005KT CAVOK 22/M03 Q1023 NOSIG

TAF

Not found

Frequencies

Unicom 122.80 MHz CTAF
Tower 118.90 MHz TWR
Ground 121.90 MHz GND
Warning: Do not use this data for real-world aviation or navigation. No guarantee of current accuracy is given.